Lenoir, NC

10:58 AM EST on December 05, 2016 (GMT -0500)
Morganton-Lenoir

Weather History for KMRN - December, 2012

Change the Weather History Date:

Thursday, December 27, 2012

  Actual Average (KHKY) Record (KHKY)
Temperature  
Mean Temperature 38 °F -  
Max Temperature 48 °F 49 °F 73 °F (1971)
Min Temperature 28 °F 30 °F 16 °F (1980)
Degree Days  
Heating Degree Days 28    
Moisture  
Dew Point 27 °F    
Average Humidity 68    
Maximum Humidity 96    
Minimum Humidity 45    
Precipitation  
Precipitation 0.01 in - - ()
Sea Level Pressure  
Sea Level Pressure 29.95 in    
Wind  
Wind Speed 5 mph (WNW)    
Max Wind Speed 13 mph    
Max Gust Speed 18 mph    
Visibility 10 miles    
Events      
Averages and records for this station are not official NWS values.
T = Trace of Precipitation, MM = Missing Value Source: NWS Daily Summary

Daily Weather History Graph

Daily Weather History Graph

Search for Another Location

Airport or City:

Trip Planner

Search our weather history database for the weather conditions in past years. The results will help you decide how hot, cold, wet, or windy it might be!

Date:

Astronomy

Dec. 27, 2012 Rise Set
Actual Time 7:35 AM EST 5:20 PM EST
Civil Twilight 7:06 AM EST 5:48 PM EST
Nautical Twilight 6:34 AM EST 6:20 PM EST
Astronomical Twilight 6:03 AM EST 6:51 PM EST
Moon 5:01 PM EST (12/27) 6:46 AM EST (12/27)
Length of Visible Light 10h 41m
Length of Day
9h 44m
Full, 100% of the Moon is Illuminated
Dec 27
Full
Dec 28
Full
Jan 4
Last Quarter
Jan 11
New
Jan 18
First Quarter

Hourly Weather History & Observations

Time (EST) Temp. Windchill Dew Point Humidity Pressure Visibility Wind Dir Wind Speed Gust Speed Precip Events Conditions
12:15 AM 37.2 °F 29.1 °F 27.5 °F 68% 29.75 in 10.0 mi West 12.7 mph 17.3 mph N/A   Scattered Clouds
12:35 AM 37.4 °F 29.3 °F 27.3 °F 67% 29.75 in 10.0 mi West 12.7 mph 18.4 mph N/A   Mostly Cloudy
12:55 AM 38.3 °F 32.5 °F 26.2 °F 62% 29.75 in 10.0 mi West 8.1 mph - N/A   Overcast
1:15 AM 37.6 °F 32.3 °F 26.6 °F 65% 29.75 in 10.0 mi West 6.9 mph - N/A   Mostly Cloudy
1:35 AM 36.7 °F - 26.8 °F 67% 29.75 in 10.0 mi Calm Calm - N/A   Mostly Cloudy
1:55 AM 35.1 °F - 27.0 °F 72% 29.75 in 10.0 mi Calm Calm - N/A   Mostly Cloudy
2:15 AM 34.7 °F 30.6 °F 26.8 °F 73% 29.76 in 10.0 mi South 4.6 mph - N/A   Scattered Clouds
2:35 AM 31.5 °F - 27.7 °F 86% 29.76 in 10.0 mi Calm Calm - N/A   Clear
2:55 AM 33.1 °F - 27.0 °F 78% 29.77 in 10.0 mi Calm Calm - N/A   Clear
3:15 AM 32.2 °F 27.7 °F 27.7 °F 83% 29.78 in 10.0 mi SSE 4.6 mph - N/A   Clear
3:35 AM 34.0 °F 31.0 °F 27.1 °F 76% 29.79 in 10.0 mi SSE 3.5 mph - N/A   Clear
3:55 AM 34.0 °F - 26.8 °F 75% 29.80 in 10.0 mi Calm Calm - N/A   Clear
4:15 AM 34.2 °F 30.0 °F 27.0 °F 75% 29.80 in 10.0 mi SW 4.6 mph - N/A   Clear
4:55 AM 35.6 °F 31.7 °F 26.1 °F 68% 29.80 in 10.0 mi SW 4.6 mph - N/A   Clear
5:15 AM 32.7 °F 29.6 °F 26.4 °F 78% 29.81 in 10.0 mi East 3.5 mph - N/A   Clear
5:35 AM 33.8 °F - 26.2 °F 74% 29.82 in 10.0 mi Calm Calm - N/A   Clear
5:55 AM 35.8 °F 33.0 °F 26.1 °F 68% 29.81 in 10.0 mi South 3.5 mph - N/A   Clear
6:15 AM 32.9 °F - 26.2 °F 76% 29.83 in 10.0 mi Calm Calm - N/A   Clear
6:35 AM 32.5 °F 29.3 °F 26.2 °F 78% 29.84 in 10.0 mi South 3.5 mph - N/A   Clear
6:55 AM 34.7 °F - 25.7 °F 70% 29.85 in 10.0 mi Calm Calm - N/A   Clear
7:15 AM 34.5 °F 28.6 °F 26.1 °F 71% 29.87 in 10.0 mi SE 6.9 mph - N/A   Clear
7:35 AM 33.8 °F - 26.1 °F 73% 29.88 in 10.0 mi Calm Calm - N/A   Clear
7:55 AM 35.1 °F - 26.2 °F 70% 29.88 in 10.0 mi Calm Calm - N/A   Clear
8:15 AM 36.7 °F - 26.4 °F 66% 29.88 in 10.0 mi Calm Calm - N/A   Clear
8:35 AM 37.9 °F 31.5 °F 25.9 °F 62% 29.89 in 10.0 mi West 9.2 mph - N/A   Clear
8:55 AM 39.7 °F 34.9 °F 25.3 °F 56% 29.90 in 10.0 mi WNW 6.9 mph 17.3 mph N/A   Clear
9:15 AM 38.8 °F - 27.7 °F 64% 29.92 in 10.0 mi Calm Calm - N/A   Clear
9:35 AM 39.6 °F 37.4 °F 27.7 °F 62% 29.94 in 10.0 mi South 3.5 mph - N/A   Clear
9:55 AM 40.6 °F 37.5 °F 27.3 °F 59% 29.95 in 10.0 mi South 4.6 mph - N/A   Clear
10:15 AM 41.4 °F 38.4 °F 26.1 °F 55% 29.96 in 10.0 mi West 4.6 mph - N/A   Clear
10:35 AM 42.4 °F 39.6 °F 27.1 °F 55% 29.96 in 10.0 mi NW 4.6 mph - N/A   Clear
10:55 AM 43.2 °F 41.5 °F 26.8 °F 52% 29.97 in 10.0 mi North 3.5 mph - N/A   Clear
11:35 AM 44.1 °F 42.5 °F 28.2 °F 54% 29.99 in 10.0 mi West 3.5 mph - N/A   Clear
11:55 AM 44.8 °F 41.0 °F 29.1 °F 54% 29.99 in 10.0 mi WSW 6.9 mph - N/A   Clear
12:15 PM 45.1 °F 41.4 °F 29.1 °F 54% 29.99 in 10.0 mi WSW 6.9 mph - N/A   Clear
12:35 PM 45.5 °F 44.2 °F 28.8 °F 52% 29.98 in 10.0 mi West 3.5 mph - N/A   Clear
12:55 PM 45.7 °F - 29.1 °F 52% 29.97 in 10.0 mi Calm Calm - N/A   Clear
1:15 PM 46.6 °F - 28.6 °F 50% 29.98 in 10.0 mi SW 5.8 mph - N/A   Clear
1:35 PM 47.1 °F - 26.4 °F 45% 29.99 in 10.0 mi West 6.9 mph - N/A   Clear
2:15 PM 46.9 °F - 28.4 °F 49% 29.99 in 10.0 mi North 8.1 mph - N/A   Clear
2:35 PM 46.0 °F 42.5 °F 27.9 °F 49% 30.00 in 10.0 mi North 6.9 mph - N/A   Clear
2:55 PM 46.0 °F 43.9 °F 27.5 °F 48% 30.00 in 10.0 mi NE 4.6 mph - N/A   Clear
3:15 PM 46.2 °F 41.7 °F 27.7 °F 48% 30.00 in 10.0 mi NNW 9.2 mph - N/A   Clear
3:35 PM 45.9 °F 41.2 °F 26.8 °F 47% 30.01 in 10.0 mi NNW 9.2 mph - N/A   Clear
3:55 PM 45.1 °F 42.0 °F 27.9 °F 51% 30.02 in 10.0 mi NNW 5.8 mph - N/A   Clear
4:15 PM 43.9 °F 41.3 °F 27.7 °F 53% 30.03 in 10.0 mi NNW 4.6 mph - N/A   Clear
4:35 PM 42.4 °F 37.5 °F 27.3 °F 55% 30.04 in 10.0 mi NNW 8.1 mph - N/A   Clear
4:55 PM 41.0 °F 36.4 °F 27.3 °F 58% 30.05 in 10.0 mi NNW 6.9 mph - N/A   Clear
5:15 PM 39.4 °F 36.1 °F 27.1 °F 62% 30.06 in 10.0 mi North 4.6 mph - N/A   Clear
5:35 PM 38.1 °F 34.6 °F 27.0 °F 64% 30.06 in 10.0 mi North 4.6 mph - N/A   Clear
5:55 PM 37.4 °F 33.8 °F 26.6 °F 65% 30.07 in 10.0 mi North 4.6 mph - N/A   Clear
6:15 PM 36.7 °F 32.9 °F 26.6 °F 67% 30.07 in 10.0 mi North 4.6 mph - N/A   Clear
6:35 PM 36.5 °F 31.8 °F 26.4 °F 67% 30.08 in 10.0 mi NNW 5.8 mph - N/A   Clear
6:55 PM 35.8 °F 33.0 °F 26.6 °F 69% 30.08 in 10.0 mi NNW 3.5 mph - N/A   Clear
7:15 PM 35.2 °F 31.2 °F 26.2 °F 70% 30.09 in 10.0 mi NNW 4.6 mph - N/A   Clear
7:35 PM 34.9 °F 29.9 °F 26.4 °F 71% 30.08 in 10.0 mi NNW 5.8 mph - N/A   Clear
8:15 PM 34.2 °F 31.2 °F 25.9 °F 72% 30.09 in 10.0 mi North 3.5 mph - N/A   Clear
8:35 PM 34.2 °F 30.0 °F 25.7 °F 71% 30.08 in 10.0 mi North 4.6 mph - N/A   Clear
8:55 PM 33.6 °F 30.6 °F 25.7 °F 73% 30.09 in 10.0 mi WNW 3.5 mph - N/A   Clear
9:15 PM 30.4 °F - 26.4 °F 85% 30.09 in 10.0 mi Calm Calm - N/A   Clear
9:35 PM 29.1 °F - 26.4 °F 90% 30.09 in 10.0 mi Calm Calm - N/A   Clear
9:55 PM 29.1 °F - 27.3 °F 93% 30.10 in 10.0 mi Calm Calm - N/A   Clear
10:15 PM 28.9 °F - 27.5 °F 94% 30.10 in 10.0 mi Calm Calm - N/A   Clear
10:35 PM 28.4 °F - 27.5 °F 96% 30.10 in 10.0 mi Calm Calm - N/A   Clear
10:55 PM 28.8 °F - 27.5 °F 95% 30.10 in 10.0 mi Calm Calm - N/A   Clear
11:15 PM 28.4 °F - 27.3 °F 96% 30.10 in 10.0 mi Calm Calm - N/A   Clear
11:35 PM 29.1 °F - 27.7 °F 94% 30.10 in 10.0 mi Calm Calm - N/A   Clear
11:55 PM 28.6 °F - 27.0 °F 94% 30.11 in 10.0 mi Calm Calm - N/A   Clear